Terminal Aerodrome Forecast
Issued by NWS Sterling, VA

Current Version | Previous Version | Graphics & Text | Print | Product List | Glossary On
Versions: 1 2 3 4 5 6 7 8 9 10 11 12 13 14 15 16 17 18 19 20 21 22
000
FTUS41 KLWX 211728
TAFIAD
TAF
KIAD 211728Z 2118/2224 33006KT P6SM BKN050
     FM212000 32006KT P6SM SCT050
     FM220300 31007KT P6SM BKN100
     FM220900 32011G21KT P6SM BKN100
     FM221100 33012G27KT P6SM FEW060=

USA.gov is the U.S. government's official web portal to all federal, state and local government web resources and services.